Portada
METAR-TAF:

METAR-TAF

Aeroports :

Morristown, Nova Jersey, Estats Units d'Amèrica

latitud: 40-48N, longitud: 074-25W, altitud: 57 m

Observació

L'informe es va fer fa 34 minuts, a les 08:55 UTC
Vent calma
Temperatura 17°C
Humitat 100%
Pressió 1013 hPa
Visibilitat: 16.1 km
Cel cobert a una alçada de 11000 ft
plugim

METAR: KMMU 160855Z AUTO 00000KT 10SM -DZ OVC110 17/17 A2991 RMK AO2

Hora: 05:29 (09:29 UTC)


TAF: manca

Observacions i pronòstics meteorològics de més de 4000 aeroports (METAR i TAF).

Les estacions disponibles són els punts grocs i vermells al mapa.

Posi el ratolí al punt desitjat per veure el nom de l'estació.

Feu clic per veure les observacions i els pronòstics meteorològics.

Per canviar el mapa: feu clic els botons verds amb una creu de color negre per apropar; al botó verd amb un guió per allunyar la imatge; o en les fletxes verdes per a mapes adjacents.


METAR-TAF: